sensor_id;sensor_type;location;lat;lon;timestamp;P1;durP1;ratioP1;P2;durP2;ratioP2
37907;SDS011;23740;51.550;6.846;2023-11-22T00:00:02;8.50;;;4.50;;
37907;SDS011;23740;51.550;6.846;2023-11-22T00:02:31;8.07;;;4.55;;
37907;SDS011;23740;51.550;6.846;2023-11-22T00:04:59;4.40;;;2.97;;
37907;SDS011;23740;51.550;6.846;2023-11-22T00:07:27;6.65;;;4.25;;
37907;SDS011;23740;51.550;6.846;2023-11-22T00:09:56;3.22;;;1.90;;
37907;SDS011;23740;51.550;6.846;2023-11-22T00:12:24;2.95;;;1.52;;
37907;SDS011;23740;51.550;6.846;2023-11-22T00:14:52;8.02;;;4.65;;
37907;SDS011;23740;51.550;6.846;2023-11-22T00:17:20;5.13;;;3.40;;
37907;SDS011;23740;51.550;6.846;2023-11-22T00:19:51;7.25;;;4.25;;
37907;SDS011;23740;51.550;6.846;2023-11-22T00:22:18;7.15;;;4.07;;
37907;SDS011;23740;51.550;6.846;2023-11-22T00:24:46;7.15;;;3.97;;
37907;SDS011;23740;51.550;6.846;2023-11-22T00:27:16;5.80;;;3.75;;
37907;SDS011;23740;51.550;6.846;2023-11-22T00:29:44;7.15;;;4.38;;
37907;SDS011;23740;51.550;6.846;2023-11-22T00:32:12;8.23;;;4.93;;
37907;SDS011;23740;51.550;6.846;2023-11-22T00:34:40;6.28;;;4.05;;
37907;SDS011;23740;51.550;6.846;2023-11-22T00:37:09;9.25;;;4.70;;
37907;SDS011;23740;51.550;6.846;2023-11-22T00:39:37;8.63;;;5.50;;
37907;SDS011;23740;51.550;6.846;2023-11-22T00:42:05;8.18;;;4.45;;
37907;SDS011;23740;51.550;6.846;2023-11-22T00:44:33;7.15;;;4.15;;
37907;SDS011;23740;51.550;6.846;2023-11-22T00:47:02;8.02;;;5.00;;
37907;SDS011;23740;51.550;6.846;2023-11-22T00:49:31;9.85;;;5.13;;
37907;SDS011;23740;51.550;6.846;2023-11-22T00:51:59;8.65;;;4.82;;
37907;SDS011;23740;51.550;6.846;2023-11-22T00:54:30;11.93;;;5.20;;
37907;SDS011;23740;51.550;6.846;2023-11-22T00:56:58;8.10;;;4.53;;
37907;SDS011;23740;51.550;6.846;2023-11-22T00:59:26;7.15;;;4.35;;
37907;SDS011;23740;51.550;6.846;2023-11-22T01:01:54;7.43;;;4.60;;
37907;SDS011;23740;51.550;6.846;2023-11-22T01:04:22;8.20;;;3.97;;
37907;SDS011;23740;51.550;6.846;2023-11-22T01:06:50;7.00;;;4.13;;
37907;SDS011;23740;51.550;6.846;2023-11-22T01:09:18;7.32;;;4.72;;
37907;SDS011;23740;51.550;6.846;2023-11-22T01:11:47;7.72;;;4.85;;
37907;SDS011;23740;51.550;6.846;2023-11-22T01:14:14;7.95;;;4.63;;
37907;SDS011;23740;51.550;6.846;2023-11-22T01:16:42;6.25;;;4.05;;
37907;SDS011;23740;51.550;6.846;2023-11-22T01:19:10;8.35;;;5.30;;
37907;SDS011;23740;51.550;6.846;2023-11-22T01:21:38;9.10;;;4.85;;
37907;SDS011;23740;51.550;6.846;2023-11-22T01:24:06;7.20;;;4.55;;
37907;SDS011;23740;51.550;6.846;2023-11-22T01:26:35;7.05;;;4.22;;
37907;SDS011;23740;51.550;6.846;2023-11-22T01:29:06;7.45;;;3.78;;
37907;SDS011;23740;51.550;6.846;2023-11-22T01:31:34;8.38;;;4.70;;
37907;SDS011;23740;51.550;6.846;2023-11-22T01:34:02;7.85;;;4.18;;
37907;SDS011;23740;51.550;6.846;2023-11-22T01:36:33;7.75;;;4.50;;
37907;SDS011;23740;51.550;6.846;2023-11-22T01:39:01;9.68;;;4.63;;
37907;SDS011;23740;51.550;6.846;2023-11-22T01:41:29;7.57;;;4.32;;
37907;SDS011;23740;51.550;6.846;2023-11-22T01:43:57;7.60;;;4.45;;
37907;SDS011;23740;51.550;6.846;2023-11-22T01:46:26;9.00;;;4.75;;
37907;SDS011;23740;51.550;6.846;2023-11-22T01:48:54;10.52;;;5.50;;
37907;SDS011;23740;51.550;6.846;2023-11-22T01:51:23;7.32;;;4.15;;
37907;SDS011;23740;51.550;6.846;2023-11-22T01:53:51;10.40;;;5.25;;
37907;SDS011;23740;51.550;6.846;2023-11-22T01:56:20;11.38;;;4.90;;
37907;SDS011;23740;51.550;6.846;2023-11-22T01:58:51;8.93;;;5.05;;
37907;SDS011;23740;51.550;6.846;2023-11-22T02:01:20;9.00;;;4.70;;
37907;SDS011;23740;51.550;6.846;2023-11-22T02:03:50;7.70;;;4.88;;
37907;SDS011;23740;51.550;6.846;2023-11-22T02:06:19;10.25;;;5.63;;
37907;SDS011;23740;51.550;6.846;2023-11-22T02:08:48;10.10;;;5.85;;
37907;SDS011;23740;51.550;6.846;2023-11-22T02:11:16;9.38;;;4.57;;
37907;SDS011;23740;51.550;6.846;2023-11-22T02:13:48;10.38;;;5.25;;
37907;SDS011;23740;51.550;6.846;2023-11-22T02:16:16;8.90;;;4.68;;
37907;SDS011;23740;51.550;6.846;2023-11-22T02:18:44;7.70;;;4.88;;
37907;SDS011;23740;51.550;6.846;2023-11-22T02:21:13;8.20;;;4.65;;
37907;SDS011;23740;51.550;6.846;2023-11-22T02:23:44;7.65;;;4.90;;
37907;SDS011;23740;51.550;6.846;2023-11-22T02:26:11;7.38;;;4.90;;
37907;SDS011;23740;51.550;6.846;2023-11-22T02:28:39;8.68;;;3.97;;
37907;SDS011;23740;51.550;6.846;2023-11-22T02:31:07;8.45;;;4.60;;
37907;SDS011;23740;51.550;6.846;2023-11-22T02:33:35;10.70;;;4.40;;
37907;SDS011;23740;51.550;6.846;2023-11-22T02:36:03;12.27;;;5.22;;
37907;SDS011;23740;51.550;6.846;2023-11-22T02:38:31;10.43;;;5.10;;
37907;SDS011;23740;51.550;6.846;2023-11-22T02:41:00;7.72;;;4.28;;
37907;SDS011;23740;51.550;6.846;2023-11-22T02:43:28;8.48;;;4.93;;
37907;SDS011;23740;51.550;6.846;2023-11-22T02:45:56;9.65;;;4.97;;
37907;SDS011;23740;51.550;6.846;2023-11-22T02:48:24;11.35;;;5.53;;
37907;SDS011;23740;51.550;6.846;2023-11-22T02:50:52;8.80;;;5.35;;
37907;SDS011;23740;51.550;6.846;2023-11-22T02:53:20;8.80;;;5.78;;
37907;SDS011;23740;51.550;6.846;2023-11-22T02:55:48;10.35;;;6.05;;
37907;SDS011;23740;51.550;6.846;2023-11-22T02:58:17;10.30;;;5.53;;
37907;SDS011;23740;51.550;6.846;2023-11-22T03:00:45;11.10;;;5.55;;
37907;SDS011;23740;51.550;6.846;2023-11-22T03:03:13;12.52;;;6.15;;
37907;SDS011;23740;51.550;6.846;2023-11-22T03:05:41;7.65;;;4.75;;
37907;SDS011;23740;51.550;6.846;2023-11-22T03:08:09;8.90;;;5.38;;
37907;SDS011;23740;51.550;6.846;2023-11-22T03:10:37;8.05;;;4.75;;
37907;SDS011;23740;51.550;6.846;2023-11-22T03:13:05;8.15;;;4.65;;
37907;SDS011;23740;51.550;6.846;2023-11-22T03:15:34;10.35;;;5.53;;
37907;SDS011;23740;51.550;6.846;2023-11-22T03:18:02;9.50;;;5.35;;
37907;SDS011;23740;51.550;6.846;2023-11-22T03:20:32;9.30;;;5.18;;
37907;SDS011;23740;51.550;6.846;2023-11-22T03:23:01;11.57;;;5.72;;
37907;SDS011;23740;51.550;6.846;2023-11-22T03:25:29;7.57;;;4.60;;
37907;SDS011;23740;51.550;6.846;2023-11-22T03:27:57;9.85;;;4.95;;
37907;SDS011;23740;51.550;6.846;2023-11-22T03:30:25;9.18;;;5.50;;
37907;SDS011;23740;51.550;6.846;2023-11-22T03:32:54;9.77;;;5.15;;
37907;SDS011;23740;51.550;6.846;2023-11-22T03:35:22;10.38;;;4.97;;
37907;SDS011;23740;51.550;6.846;2023-11-22T03:37:49;10.80;;;5.93;;
37907;SDS011;23740;51.550;6.846;2023-11-22T03:40:17;10.20;;;5.80;;
37907;SDS011;23740;51.550;6.846;2023-11-22T03:42:46;10.00;;;5.30;;
37907;SDS011;23740;51.550;6.846;2023-11-22T03:45:14;10.15;;;5.97;;
37907;SDS011;23740;51.550;6.846;2023-11-22T03:47:42;10.43;;;5.70;;
37907;SDS011;23740;51.550;6.846;2023-11-22T03:50:12;11.13;;;5.65;;
37907;SDS011;23740;51.550;6.846;2023-11-22T03:52:41;10.30;;;5.70;;
37907;SDS011;23740;51.550;6.846;2023-11-22T03:55:09;9.88;;;4.93;;
37907;SDS011;23740;51.550;6.846;2023-11-22T03:57:36;10.35;;;5.20;;
37907;SDS011;23740;51.550;6.846;2023-11-22T04:00:05;10.05;;;5.03;;
37907;SDS011;23740;51.550;6.846;2023-11-22T04:02:35;9.20;;;5.10;;
37907;SDS011;23740;51.550;6.846;2023-11-22T04:05:05;8.60;;;5.30;;
37907;SDS011;23740;51.550;6.846;2023-11-22T04:07:35;7.97;;;4.05;;
37907;SDS011;23740;51.550;6.846;2023-11-22T04:10:04;8.73;;;4.82;;
37907;SDS011;23740;51.550;6.846;2023-11-22T04:12:33;9.25;;;5.00;;
37907;SDS011;23740;51.550;6.846;2023-11-22T04:15:02;12.05;;;6.18;;
37907;SDS011;23740;51.550;6.846;2023-11-22T04:17:31;9.13;;;4.82;;
37907;SDS011;23740;51.550;6.846;2023-11-22T04:19:59;7.32;;;4.65;;
37907;SDS011;23740;51.550;6.846;2023-11-22T04:22:28;8.43;;;5.10;;
37907;SDS011;23740;51.550;6.846;2023-11-22T04:24:57;8.20;;;4.53;;
37907;SDS011;23740;51.550;6.846;2023-11-22T04:27:25;12.18;;;5.13;;
37907;SDS011;23740;51.550;6.846;2023-11-22T04:29:53;9.88;;;5.53;;
37907;SDS011;23740;51.550;6.846;2023-11-22T04:32:21;12.00;;;5.22;;
37907;SDS011;23740;51.550;6.846;2023-11-22T04:34:49;8.15;;;4.88;;
37907;SDS011;23740;51.550;6.846;2023-11-22T04:37:17;10.88;;;3.85;;
37907;SDS011;23740;51.550;6.846;2023-11-22T04:39:45;9.80;;;4.15;;
37907;SDS011;23740;51.550;6.846;2023-11-22T04:42:17;12.50;;;6.25;;
37907;SDS011;23740;51.550;6.846;2023-11-22T04:44:46;10.02;;;5.00;;
37907;SDS011;23740;51.550;6.846;2023-11-22T04:47:14;5.90;;;2.75;;
37907;SDS011;23740;51.550;6.846;2023-11-22T04:49:42;7.75;;;4.70;;
37907;SDS011;23740;51.550;6.846;2023-11-22T04:52:10;9.82;;;5.45;;
37907;SDS011;23740;51.550;6.846;2023-11-22T04:54:38;11.15;;;5.05;;
37907;SDS011;23740;51.550;6.846;2023-11-22T04:57:06;10.50;;;5.55;;
37907;SDS011;23740;51.550;6.846;2023-11-22T04:59:35;12.05;;;5.22;;
37907;SDS011;23740;51.550;6.846;2023-11-22T05:02:04;9.00;;;4.82;;
37907;SDS011;23740;51.550;6.846;2023-11-22T05:04:33;9.85;;;6.05;;
37907;SDS011;23740;51.550;6.846;2023-11-22T05:07:01;10.55;;;4.65;;
37907;SDS011;23740;51.550;6.846;2023-11-22T05:09:29;12.80;;;6.07;;
37907;SDS011;23740;51.550;6.846;2023-11-22T05:11:57;9.70;;;5.43;;
37907;SDS011;23740;51.550;6.846;2023-11-22T05:14:25;8.57;;;4.43;;
37907;SDS011;23740;51.550;6.846;2023-11-22T05:16:54;7.30;;;3.17;;
37907;SDS011;23740;51.550;6.846;2023-11-22T05:19:23;8.50;;;4.53;;
37907;SDS011;23740;51.550;6.846;2023-11-22T05:21:50;12.55;;;5.20;;
37907;SDS011;23740;51.550;6.846;2023-11-22T05:24:18;8.93;;;4.50;;
37907;SDS011;23740;51.550;6.846;2023-11-22T05:26:46;11.15;;;5.22;;
37907;SDS011;23740;51.550;6.846;2023-11-22T05:29:14;9.32;;;5.53;;
37907;SDS011;23740;51.550;6.846;2023-11-22T05:31:41;10.98;;;4.90;;
37907;SDS011;23740;51.550;6.846;2023-11-22T05:34:11;10.10;;;5.05;;
37907;SDS011;23740;51.550;6.846;2023-11-22T05:36:39;10.80;;;5.35;;
37907;SDS011;23740;51.550;6.846;2023-11-22T05:39:07;12.45;;;5.15;;
37907;SDS011;23740;51.550;6.846;2023-11-22T05:41:35;10.48;;;5.30;;
37907;SDS011;23740;51.550;6.846;2023-11-22T05:44:03;9.27;;;4.88;;
37907;SDS011;23740;51.550;6.846;2023-11-22T05:46:32;9.80;;;6.00;;
37907;SDS011;23740;51.550;6.846;2023-11-22T05:49:00;8.93;;;4.55;;
37907;SDS011;23740;51.550;6.846;2023-11-22T05:51:29;10.13;;;5.65;;
37907;SDS011;23740;51.550;6.846;2023-11-22T05:53:57;8.82;;;5.13;;
37907;SDS011;23740;51.550;6.846;2023-11-22T05:56:24;11.60;;;5.18;;
37907;SDS011;23740;51.550;6.846;2023-11-22T05:58:52;9.75;;;5.90;;
37907;SDS011;23740;51.550;6.846;2023-11-22T06:01:20;11.70;;;5.43;;
37907;SDS011;23740;51.550;6.846;2023-11-22T06:03:48;10.50;;;5.35;;
37907;SDS011;23740;51.550;6.846;2023-11-22T06:06:16;11.82;;;6.22;;
37907;SDS011;23740;51.550;6.846;2023-11-22T06:08:45;11.18;;;4.97;;
37907;SDS011;23740;51.550;6.846;2023-11-22T06:11:13;8.98;;;5.07;;
37907;SDS011;23740;51.550;6.846;2023-11-22T06:13:41;9.27;;;5.38;;
37907;SDS011;23740;51.550;6.846;2023-11-22T06:16:09;10.82;;;5.05;;
37907;SDS011;23740;51.550;6.846;2023-11-22T06:18:37;11.73;;;5.30;;
37907;SDS011;23740;51.550;6.846;2023-11-22T06:21:06;9.43;;;4.22;;
37907;SDS011;23740;51.550;6.846;2023-11-22T06:23:34;13.00;;;5.85;;
37907;SDS011;23740;51.550;6.846;2023-11-22T06:26:04;8.52;;;4.90;;
37907;SDS011;23740;51.550;6.846;2023-11-22T06:28:32;11.90;;;5.38;;
37907;SDS011;23740;51.550;6.846;2023-11-22T06:31:01;9.32;;;5.25;;
37907;SDS011;23740;51.550;6.846;2023-11-22T06:33:29;9.65;;;4.78;;
37907;SDS011;23740;51.550;6.846;2023-11-22T06:35:57;8.23;;;5.03;;
37907;SDS011;23740;51.550;6.846;2023-11-22T06:38:25;15.25;;;6.25;;
37907;SDS011;23740;51.550;6.846;2023-11-22T06:40:52;12.02;;;5.80;;
37907;SDS011;23740;51.550;6.846;2023-11-22T06:43:21;11.07;;;5.30;;
37907;SDS011;23740;51.550;6.846;2023-11-22T06:45:50;10.48;;;5.50;;
37907;SDS011;23740;51.550;6.846;2023-11-22T06:48:18;10.60;;;5.20;;
37907;SDS011;23740;51.550;6.846;2023-11-22T06:50:46;10.00;;;5.43;;
37907;SDS011;23740;51.550;6.846;2023-11-22T06:53:14;11.45;;;4.68;;
37907;SDS011;23740;51.550;6.846;2023-11-22T06:55:45;9.93;;;5.47;;
37907;SDS011;23740;51.550;6.846;2023-11-22T06:58:13;10.43;;;4.95;;
37907;SDS011;23740;51.550;6.846;2023-11-22T07:00:43;9.48;;;4.85;;
37907;SDS011;23740;51.550;6.846;2023-11-22T07:03:11;9.85;;;4.72;;
37907;SDS011;23740;51.550;6.846;2023-11-22T07:05:41;9.90;;;4.70;;
37907;SDS011;23740;51.550;6.846;2023-11-22T07:08:08;8.07;;;4.35;;
37907;SDS011;23740;51.550;6.846;2023-11-22T07:10:37;8.73;;;5.93;;
37907;SDS011;23740;51.550;6.846;2023-11-22T07:13:05;13.27;;;6.57;;
37907;SDS011;23740;51.550;6.846;2023-11-22T07:15:33;17.65;;;6.85;;
37907;SDS011;23740;51.550;6.846;2023-11-22T07:18:02;12.90;;;7.43;;
37907;SDS011;23740;51.550;6.846;2023-11-22T07:20:31;11.77;;;5.97;;
37907;SDS011;23740;51.550;6.846;2023-11-22T07:22:59;15.52;;;7.10;;
37907;SDS011;23740;51.550;6.846;2023-11-22T07:25:28;13.90;;;7.57;;
37907;SDS011;23740;51.550;6.846;2023-11-22T07:27:56;13.95;;;6.40;;
37907;SDS011;23740;51.550;6.846;2023-11-22T07:30:25;14.45;;;6.47;;
37907;SDS011;23740;51.550;6.846;2023-11-22T07:32:56;12.13;;;7.05;;
37907;SDS011;23740;51.550;6.846;2023-11-22T07:35:27;8.35;;;5.25;;
37907;SDS011;23740;51.550;6.846;2023-11-22T07:37:55;10.27;;;5.15;;
37907;SDS011;23740;51.550;6.846;2023-11-22T07:40:24;7.53;;;4.40;;
37907;SDS011;23740;51.550;6.846;2023-11-22T07:42:51;9.77;;;5.82;;
37907;SDS011;23740;51.550;6.846;2023-11-22T07:45:21;7.78;;;4.72;;
37907;SDS011;23740;51.550;6.846;2023-11-22T07:47:49;6.85;;;4.05;;
37907;SDS011;23740;51.550;6.846;2023-11-22T07:50:19;14.30;;;5.18;;
37907;SDS011;23740;51.550;6.846;2023-11-22T07:52:49;10.13;;;5.80;;
37907;SDS011;23740;51.550;6.846;2023-11-22T07:55:17;10.48;;;4.82;;
37907;SDS011;23740;51.550;6.846;2023-11-22T07:57:45;11.32;;;5.50;;
37907;SDS011;23740;51.550;6.846;2023-11-22T08:00:15;8.35;;;5.18;;
37907;SDS011;23740;51.550;6.846;2023-11-22T08:02:45;8.63;;;5.43;;
37907;SDS011;23740;51.550;6.846;2023-11-22T08:05:13;8.85;;;4.45;;
37907;SDS011;23740;51.550;6.846;2023-11-22T08:07:42;9.57;;;4.97;;
37907;SDS011;23740;51.550;6.846;2023-11-22T08:10:16;8.93;;;5.28;;
37907;SDS011;23740;51.550;6.846;2023-11-22T08:12:46;7.85;;;4.57;;
37907;SDS011;23740;51.550;6.846;2023-11-22T08:15:17;7.88;;;4.00;;
37907;SDS011;23740;51.550;6.846;2023-11-22T08:17:46;6.30;;;4.13;;
37907;SDS011;23740;51.550;6.846;2023-11-22T08:20:14;7.03;;;4.00;;
37907;SDS011;23740;51.550;6.846;2023-11-22T08:22:45;10.25;;;5.25;;
37907;SDS011;23740;51.550;6.846;2023-11-22T08:25:17;9.85;;;4.60;;
37907;SDS011;23740;51.550;6.846;2023-11-22T08:27:45;8.15;;;4.38;;
37907;SDS011;23740;51.550;6.846;2023-11-22T08:30:13;9.10;;;4.18;;
37907;SDS011;23740;51.550;6.846;2023-11-22T08:32:42;6.30;;;3.75;;
37907;SDS011;23740;51.550;6.846;2023-11-22T08:35:16;6.63;;;4.50;;
37907;SDS011;23740;51.550;6.846;2023-11-22T08:37:44;6.75;;;4.43;;
37907;SDS011;23740;51.550;6.846;2023-11-22T08:40:18;5.90;;;3.83;;
37907;SDS011;23740;51.550;6.846;2023-11-22T08:42:47;6.07;;;3.67;;
37907;SDS011;23740;51.550;6.846;2023-11-22T08:45:15;8.90;;;4.47;;
37907;SDS011;23740;51.550;6.846;2023-11-22T08:47:43;10.35;;;4.82;;
37907;SDS011;23740;51.550;6.846;2023-11-22T08:50:12;8.07;;;4.22;;
37907;SDS011;23740;51.550;6.846;2023-11-22T08:52:42;7.45;;;3.95;;
37907;SDS011;23740;51.550;6.846;2023-11-22T08:55:11;6.78;;;3.97;;
37907;SDS011;23740;51.550;6.846;2023-11-22T08:57:42;4.13;;;2.00;;
37907;SDS011;23740;51.550;6.846;2023-11-22T09:00:10;5.30;;;3.63;;
37907;SDS011;23740;51.550;6.846;2023-11-22T09:02:41;7.43;;;4.60;;
37907;SDS011;23740;51.550;6.846;2023-11-22T09:05:09;6.47;;;4.03;;
37907;SDS011;23740;51.550;6.846;2023-11-22T09:07:39;6.30;;;4.22;;
37907;SDS011;23740;51.550;6.846;2023-11-22T09:10:07;7.90;;;4.60;;
37907;SDS011;23740;51.550;6.846;2023-11-22T09:12:37;6.68;;;4.05;;
37907;SDS011;23740;51.550;6.846;2023-11-22T09:15:09;7.78;;;4.53;;
37907;SDS011;23740;51.550;6.846;2023-11-22T09:17:40;7.38;;;4.38;;
37907;SDS011;23740;51.550;6.846;2023-11-22T09:20:11;6.68;;;4.00;;
37907;SDS011;23740;51.550;6.846;2023-11-22T09:22:42;6.97;;;4.22;;
37907;SDS011;23740;51.550;6.846;2023-11-22T09:25:14;7.82;;;4.35;;
37907;SDS011;23740;51.550;6.846;2023-11-22T09:27:45;5.45;;;3.60;;
37907;SDS011;23740;51.550;6.846;2023-11-22T09:30:20;7.05;;;4.10;;
37907;SDS011;23740;51.550;6.846;2023-11-22T09:33:01;5.63;;;3.60;;
37907;SDS011;23740;51.550;6.846;2023-11-22T09:35:30;5.25;;;3.60;;
37907;SDS011;23740;51.550;6.846;2023-11-22T09:37:58;6.25;;;4.45;;
37907;SDS011;23740;51.550;6.846;2023-11-22T09:40:26;5.97;;;4.10;;
37907;SDS011;23740;51.550;6.846;2023-11-22T09:42:55;6.43;;;4.40;;
37907;SDS011;23740;51.550;6.846;2023-11-22T09:45:25;7.10;;;4.43;;
37907;SDS011;23740;51.550;6.846;2023-11-22T09:47:54;6.95;;;4.28;;
37907;SDS011;23740;51.550;6.846;2023-11-22T09:50:23;6.32;;;3.92;;
37907;SDS011;23740;51.550;6.846;2023-11-22T09:52:59;7.88;;;4.68;;
37907;SDS011;23740;51.550;6.846;2023-11-22T09:55:27;7.85;;;4.32;;
37907;SDS011;23740;51.550;6.846;2023-11-22T09:57:56;6.32;;;4.75;;
37907;SDS011;23740;51.550;6.846;2023-11-22T10:00:27;8.38;;;4.05;;
37907;SDS011;23740;51.550;6.846;2023-11-22T10:02:56;6.32;;;4.10;;
37907;SDS011;23740;51.550;6.846;2023-11-22T10:05:25;7.65;;;3.55;;
37907;SDS011;23740;51.550;6.846;2023-11-22T10:07:55;7.10;;;3.85;;
37907;SDS011;23740;51.550;6.846;2023-11-22T10:10:23;7.60;;;4.03;;
37907;SDS011;23740;51.550;6.846;2023-11-22T10:12:53;5.55;;;3.95;;
37907;SDS011;23740;51.550;6.846;2023-11-22T10:15:23;5.97;;;3.90;;
37907;SDS011;23740;51.550;6.846;2023-11-22T10:17:56;5.55;;;3.63;;
37907;SDS011;23740;51.550;6.846;2023-11-22T10:20:25;6.30;;;3.47;;
37907;SDS011;23740;51.550;6.846;2023-11-22T10:22:55;6.10;;;4.13;;
37907;SDS011;23740;51.550;6.846;2023-11-22T10:25:23;6.78;;;3.85;;
37907;SDS011;23740;51.550;6.846;2023-11-22T10:27:51;7.75;;;4.43;;
37907;SDS011;23740;51.550;6.846;2023-11-22T10:30:19;5.90;;;4.05;;
37907;SDS011;23740;51.550;6.846;2023-11-22T10:32:46;6.85;;;4.25;;
37907;SDS011;23740;51.550;6.846;2023-11-22T10:35:16;7.32;;;4.38;;
37907;SDS011;23740;51.550;6.846;2023-11-22T10:37:44;6.32;;;4.20;;
37907;SDS011;23740;51.550;6.846;2023-11-22T10:40:12;7.38;;;3.70;;
37907;SDS011;23740;51.550;6.846;2023-11-22T10:42:40;7.10;;;4.10;;
37907;SDS011;23740;51.550;6.846;2023-11-22T10:45:09;7.28;;;3.95;;
37907;SDS011;23740;51.550;6.846;2023-11-22T10:47:38;8.15;;;3.75;;
37907;SDS011;23740;51.550;6.846;2023-11-22T10:50:09;6.10;;;3.72;;
37907;SDS011;23740;51.550;6.846;2023-11-22T10:52:41;8.15;;;4.13;;
37907;SDS011;23740;51.550;6.846;2023-11-22T10:55:11;6.95;;;3.20;;
37907;SDS011;23740;51.550;6.846;2023-11-22T10:57:40;5.82;;;3.67;;
37907;SDS011;23740;51.550;6.846;2023-11-22T11:00:13;6.85;;;3.75;;
37907;SDS011;23740;51.550;6.846;2023-11-22T11:02:44;6.07;;;3.45;;
37907;SDS011;23740;51.550;6.846;2023-11-22T11:05:15;5.05;;;3.40;;
37907;SDS011;23740;51.550;6.846;2023-11-22T11:07:47;5.47;;;3.08;;
37907;SDS011;23740;51.550;6.846;2023-11-22T11:10:19;5.82;;;3.10;;
37907;SDS011;23740;51.550;6.846;2023-11-22T11:15:19;5.95;;;3.38;;
37907;SDS011;23740;51.550;6.846;2023-11-22T11:17:48;5.13;;;3.47;;
37907;SDS011;23740;51.550;6.846;2023-11-22T11:20:17;8.32;;;3.72;;
37907;SDS011;23740;51.550;6.846;2023-11-22T11:22:48;4.50;;;3.17;;
37907;SDS011;23740;51.550;6.846;2023-11-22T11:25:16;7.03;;;3.20;;
37907;SDS011;23740;51.550;6.846;2023-11-22T11:27:51;6.25;;;3.72;;
37907;SDS011;23740;51.550;6.846;2023-11-22T11:33:14;6.40;;;3.75;;
37907;SDS011;23740;51.550;6.846;2023-11-22T11:35:44;4.72;;;3.38;;
37907;SDS011;23740;51.550;6.846;2023-11-22T11:38:16;4.18;;;2.80;;
37907;SDS011;23740;51.550;6.846;2023-11-22T11:40:47;6.00;;;3.38;;
37907;SDS011;23740;51.550;6.846;2023-11-22T11:43:20;5.97;;;3.30;;
37907;SDS011;23740;51.550;6.846;2023-11-22T11:45:48;4.88;;;2.97;;
37907;SDS011;23740;51.550;6.846;2023-11-22T11:48:16;6.85;;;3.30;;
37907;SDS011;23740;51.550;6.846;2023-11-22T11:50:47;5.50;;;2.97;;
37907;SDS011;23740;51.550;6.846;2023-11-22T11:53:19;5.18;;;3.13;;
37907;SDS011;23740;51.550;6.846;2023-11-22T11:55:47;6.68;;;3.03;;
37907;SDS011;23740;51.550;6.846;2023-11-22T11:58:17;3.85;;;2.70;;
37907;SDS011;23740;51.550;6.846;2023-11-22T12:00:45;5.45;;;2.72;;
37907;SDS011;23740;51.550;6.846;2023-11-22T12:03:13;4.15;;;2.70;;
37907;SDS011;23740;51.550;6.846;2023-11-22T12:05:49;6.03;;;3.42;;
37907;SDS011;23740;51.550;6.846;2023-11-22T12:08:19;5.60;;;3.33;;
37907;SDS011;23740;51.550;6.846;2023-11-22T12:10:47;7.70;;;3.17;;
37907;SDS011;23740;51.550;6.846;2023-11-22T12:13:16;9.45;;;3.13;;
37907;SDS011;23740;51.550;6.846;2023-11-22T12:15:46;5.53;;;2.92;;
37907;SDS011;23740;51.550;6.846;2023-11-22T12:18:14;5.40;;;2.78;;
37907;SDS011;23740;51.550;6.846;2023-11-22T12:20:44;4.47;;;3.08;;
37907;SDS011;23740;51.550;6.846;2023-11-22T12:23:22;6.45;;;3.53;;
37907;SDS011;23740;51.550;6.846;2023-11-22T12:25:55;5.32;;;3.03;;
37907;SDS011;23740;51.550;6.846;2023-11-22T12:28:24;4.53;;;2.70;;
37907;SDS011;23740;51.550;6.846;2023-11-22T12:30:52;2.85;;;2.38;;
37907;SDS011;23740;51.550;6.846;2023-11-22T12:33:20;6.47;;;2.88;;
37907;SDS011;23740;51.550;6.846;2023-11-22T12:35:48;4.28;;;2.65;;
37907;SDS011;23740;51.550;6.846;2023-11-22T12:38:16;4.90;;;2.35;;
37907;SDS011;23740;51.550;6.846;2023-11-22T12:40:48;5.40;;;3.25;;
37907;SDS011;23740;51.550;6.846;2023-11-22T12:43:19;5.10;;;2.95;;
37907;SDS011;23740;51.550;6.846;2023-11-22T12:46:00;4.35;;;2.42;;
37907;SDS011;23740;51.550;6.846;2023-11-22T12:48:31;5.78;;;2.40;;
37907;SDS011;23740;51.550;6.846;2023-11-22T12:51:14;4.13;;;3.03;;
37907;SDS011;23740;51.550;6.846;2023-11-22T12:53:55;3.97;;;2.05;;
37907;SDS011;23740;51.550;6.846;2023-11-22T12:56:29;3.15;;;2.17;;
37907;SDS011;23740;51.550;6.846;2023-11-22T12:59:02;3.20;;;2.83;;
37907;SDS011;23740;51.550;6.846;2023-11-22T13:01:31;3.30;;;2.25;;
37907;SDS011;23740;51.550;6.846;2023-11-22T13:04:02;4.97;;;2.95;;
37907;SDS011;23740;51.550;6.846;2023-11-22T13:06:33;3.58;;;2.30;;
37907;SDS011;23740;51.550;6.846;2023-11-22T13:09:02;3.70;;;2.55;;
37907;SDS011;23740;51.550;6.846;2023-11-22T13:11:33;4.78;;;3.28;;
37907;SDS011;23740;51.550;6.846;2023-11-22T13:14:03;3.65;;;2.78;;
37907;SDS011;23740;51.550;6.846;2023-11-22T13:19:09;6.38;;;3.00;;
37907;SDS011;23740;51.550;6.846;2023-11-22T13:21:52;3.47;;;2.72;;
37907;SDS011;23740;51.550;6.846;2023-11-22T13:24:20;3.13;;;2.33;;
37907;SDS011;23740;51.550;6.846;2023-11-22T13:26:53;3.60;;;1.85;;
37907;SDS011;23740;51.550;6.846;2023-11-22T13:29:21;4.70;;;2.28;;
37907;SDS011;23740;51.550;6.846;2023-11-22T13:31:56;3.83;;;2.38;;
37907;SDS011;23740;51.550;6.846;2023-11-22T13:34:26;4.13;;;2.47;;
37907;SDS011;23740;51.550;6.846;2023-11-22T13:36:55;6.22;;;2.78;;
37907;SDS011;23740;51.550;6.846;2023-11-22T13:39:26;4.88;;;2.58;;
37907;SDS011;23740;51.550;6.846;2023-11-22T13:41:58;4.60;;;2.35;;
37907;SDS011;23740;51.550;6.846;2023-11-22T13:44:29;3.47;;;3.17;;
37907;SDS011;23740;51.550;6.846;2023-11-22T13:46:58;5.72;;;2.85;;
37907;SDS011;23740;51.550;6.846;2023-11-22T13:49:47;5.18;;;2.88;;
37907;SDS011;23740;51.550;6.846;2023-11-22T13:52:24;5.47;;;2.80;;
37907;SDS011;23740;51.550;6.846;2023-11-22T13:55:14;5.30;;;2.75;;
37907;SDS011;23740;51.550;6.846;2023-11-22T14:01:02;6.97;;;2.85;;
37907;SDS011;23740;51.550;6.846;2023-11-22T14:03:32;4.15;;;3.10;;
37907;SDS011;23740;51.550;6.846;2023-11-22T14:06:01;5.18;;;3.25;;
37907;SDS011;23740;51.550;6.846;2023-11-22T14:08:31;8.23;;;3.30;;
37907;SDS011;23740;51.550;6.846;2023-11-22T14:10:59;6.40;;;3.25;;
37907;SDS011;23740;51.550;6.846;2023-11-22T14:13:28;5.82;;;3.38;;
37907;SDS011;23740;51.550;6.846;2023-11-22T14:15:56;7.68;;;3.70;;
37907;SDS011;23740;51.550;6.846;2023-11-22T14:18:24;7.75;;;3.85;;
37907;SDS011;23740;51.550;6.846;2023-11-22T14:20:52;6.90;;;4.05;;
37907;SDS011;23740;51.550;6.846;2023-11-22T14:23:22;6.05;;;3.47;;
37907;SDS011;23740;51.550;6.846;2023-11-22T14:25:50;6.90;;;3.78;;
37907;SDS011;23740;51.550;6.846;2023-11-22T14:28:18;7.32;;;3.35;;
37907;SDS011;23740;51.550;6.846;2023-11-22T14:30:47;5.45;;;3.38;;
37907;SDS011;23740;51.550;6.846;2023-11-22T14:33:20;5.80;;;3.72;;
37907;SDS011;23740;51.550;6.846;2023-11-22T14:35:48;6.65;;;3.28;;
37907;SDS011;23740;51.550;6.846;2023-11-22T14:38:16;7.57;;;3.03;;
37907;SDS011;23740;51.550;6.846;2023-11-22T14:40:45;6.45;;;3.60;;
37907;SDS011;23740;51.550;6.846;2023-11-22T14:43:12;6.05;;;3.00;;
37907;SDS011;23740;51.550;6.846;2023-11-22T14:45:40;6.90;;;3.03;;
37907;SDS011;23740;51.550;6.846;2023-11-22T14:48:10;5.63;;;3.42;;
37907;SDS011;23740;51.550;6.846;2023-11-22T14:50:42;5.65;;;3.03;;
37907;SDS011;23740;51.550;6.846;2023-11-22T14:53:10;5.22;;;3.50;;
37907;SDS011;23740;51.550;6.846;2023-11-22T14:55:38;5.57;;;3.28;;
37907;SDS011;23740;51.550;6.846;2023-11-22T14:58:08;4.32;;;2.92;;
37907;SDS011;23740;51.550;6.846;2023-11-22T15:00:36;5.63;;;3.08;;
37907;SDS011;23740;51.550;6.846;2023-11-22T15:03:04;7.32;;;3.10;;
37907;SDS011;23740;51.550;6.846;2023-11-22T15:05:35;4.68;;;3.17;;
37907;SDS011;23740;51.550;6.846;2023-11-22T15:08:03;4.72;;;2.90;;